createdAt,value
2023-03-16T00:00:15.170Z,9.02
2023-03-16T00:02:45.678Z,9.02
2023-03-16T00:05:16.064Z,9.00
2023-03-16T00:07:57.245Z,9.03
2023-03-16T00:10:27.944Z,9.03
2023-03-16T00:12:57.555Z,9.06
2023-03-16T00:15:26.698Z,9.07
2023-03-16T00:17:58.178Z,9.00
2023-03-16T00:20:29.357Z,8.94
2023-03-16T00:22:59.108Z,8.90
2023-03-16T00:25:33.685Z,8.87
2023-03-16T00:28:05.691Z,8.81
2023-03-16T00:30:38.552Z,8.76
2023-03-16T00:33:16.243Z,8.70
2023-03-16T00:35:50.976Z,8.63
2023-03-16T00:38:26.879Z,8.58
2023-03-16T00:41:04.168Z,8.65
2023-03-16T00:43:41.383Z,8.69
2023-03-16T00:46:14.451Z,8.70
2023-03-16T00:48:49.032Z,8.70
2023-03-16T00:51:23.101Z,8.71
2023-03-16T00:53:57.644Z,8.72
2023-03-16T00:56:27.819Z,8.74
2023-03-16T00:58:58.869Z,8.76
2023-03-16T01:01:27.646Z,8.78
2023-03-16T01:03:58.152Z,8.84
2023-03-16T01:06:28.544Z,8.93
2023-03-16T01:08:59.655Z,8.98
2023-03-16T01:11:29.571Z,8.99
2023-03-16T01:13:59.781Z,9.00
2023-03-16T01:16:29.141Z,8.98
2023-03-16T01:18:58.101Z,8.96
2023-03-16T01:21:29.037Z,8.94
2023-03-16T01:24:01.648Z,8.90
2023-03-16T01:26:30.508Z,8.91
2023-03-16T01:29:07.034Z,8.91
2023-03-16T01:31:35.589Z,8.90
2023-03-16T01:34:04.298Z,8.89
2023-03-16T01:36:42.028Z,8.89
2023-03-16T01:39:12.461Z,8.89
2023-03-16T01:41:51.503Z,8.87
2023-03-16T01:44:23.015Z,8.84
2023-03-16T01:46:54.376Z,8.81
2023-03-16T01:49:33.083Z,8.80
2023-03-16T01:52:08.800Z,8.78
2023-03-16T01:54:53.668Z,8.77
2023-03-16T01:57:25.943Z,8.77
2023-03-16T02:00:11.318Z,8.77
2023-03-16T02:02:56.188Z,8.76
2023-03-16T02:05:44.467Z,8.75
2023-03-16T02:08:17.840Z,8.75
2023-03-16T02:10:54.686Z,8.76
2023-03-16T02:13:25.488Z,8.78
2023-03-16T02:15:56.707Z,8.77
2023-03-16T02:18:26.851Z,8.78
2023-03-16T02:21:06.256Z,8.77
2023-03-16T02:23:37.229Z,8.73
2023-03-16T02:26:40.611Z,8.71
2023-03-16T02:30:04.584Z,8.72
2023-03-16T02:32:47.692Z,8.69
2023-03-16T02:35:19.332Z,8.65
2023-03-16T02:37:52.790Z,8.65
2023-03-16T02:40:34.657Z,8.74
2023-03-16T02:43:12.561Z,8.82
2023-03-16T02:45:55.652Z,8.85
2023-03-16T02:48:43.000Z,8.84
2023-03-16T02:51:19.449Z,8.84
2023-03-16T02:53:49.402Z,8.82
2023-03-16T03:02:58.617Z,8.91
2023-03-16T03:05:30.303Z,8.82
2023-03-16T03:08:02.889Z,8.76
2023-03-16T03:10:32.645Z,8.72
2023-03-16T03:13:03.350Z,8.69
2023-03-16T03:15:39.258Z,8.68
2023-03-16T03:18:12.249Z,8.65
2023-03-16T03:20:43.609Z,8.62
2023-03-16T03:23:15.424Z,8.65
2023-03-16T03:25:44.716Z,8.68
2023-03-16T03:28:16.618Z,8.70
2023-03-16T03:37:26.600Z,8.76
2023-03-16T03:39:53.903Z,8.78
2023-03-16T03:42:25.552Z,8.78
2023-03-16T03:44:55.408Z,8.78
2023-03-16T03:47:23.900Z,8.78
2023-03-16T03:49:55.477Z,8.79
2023-03-16T03:52:23.679Z,8.80
2023-03-16T03:54:52.605Z,8.82
2023-03-16T03:57:23.252Z,8.86
2023-03-16T03:59:51.728Z,8.86
2023-03-16T04:02:40.291Z,8.87
2023-03-16T04:05:17.468Z,8.86
2023-03-16T04:07:48.031Z,8.87
2023-03-16T04:10:16.059Z,8.89
2023-03-16T04:12:49.750Z,8.90
2023-03-16T04:15:22.606Z,8.88
2023-03-16T04:18:07.576Z,8.88
2023-03-16T04:20:40.511Z,8.86
2023-03-16T04:23:10.502Z,8.81
2023-03-16T04:25:39.012Z,8.77
2023-03-16T04:28:07.854Z,8.74
2023-03-16T04:30:43.978Z,8.70
2023-03-16T04:33:22.460Z,8.67
2023-03-16T04:35:51.689Z,8.63
2023-03-16T04:38:24.637Z,8.67
2023-03-16T04:40:58.711Z,8.69
2023-03-16T04:43:36.369Z,8.69
2023-03-16T04:46:17.967Z,8.69
2023-03-16T04:48:46.324Z,8.70
2023-03-16T04:51:14.874Z,8.71
2023-03-16T04:53:48.772Z,8.76
2023-03-16T04:56:26.586Z,8.77
2023-03-16T04:59:00.463Z,8.76
2023-03-16T05:01:34.052Z,8.77
2023-03-16T05:04:06.200Z,8.81
2023-03-16T05:06:36.433Z,8.83
2023-03-16T05:09:08.121Z,8.89
2023-03-16T05:11:40.025Z,8.91
2023-03-16T05:14:10.819Z,8.93
2023-03-16T05:16:55.422Z,8.93
2023-03-16T05:19:25.866Z,8.90
2023-03-16T05:22:00.615Z,8.93
2023-03-16T05:24:36.633Z,8.97
2023-03-16T05:27:09.611Z,9.00
2023-03-16T05:29:38.726Z,9.01
2023-03-16T05:32:09.633Z,9.00
2023-03-16T05:34:43.726Z,9.00
2023-03-16T05:37:30.736Z,9.01
2023-03-16T05:40:13.824Z,9.02
2023-03-16T05:42:53.823Z,9.03
2023-03-16T05:45:25.150Z,8.98
2023-03-16T05:48:06.939Z,8.93
2023-03-16T05:50:53.044Z,8.93
2023-03-16T05:53:29.880Z,8.94
2023-03-16T05:56:27.912Z,8.95
2023-03-16T05:59:00.398Z,8.97
2023-03-16T06:01:30.856Z,8.99
2023-03-16T06:04:08.746Z,8.99
2023-03-16T06:06:46.897Z,9.00
2023-03-16T06:09:30.180Z,9.04
2023-03-16T06:12:03.720Z,9.08
2023-03-16T06:14:40.077Z,9.13
2023-03-16T06:17:20.078Z,9.19
2023-03-16T06:19:53.578Z,9.23
2023-03-16T06:22:25.641Z,9.26
2023-03-16T06:25:15.793Z,9.33
2023-03-16T06:27:58.771Z,9.46
2023-03-16T06:30:38.006Z,9.56
2023-03-16T06:33:13.806Z,9.62
2023-03-16T06:35:50.978Z,9.73
2023-03-16T06:38:43.640Z,9.81
2023-03-16T06:41:38.796Z,9.85
2023-03-16T06:44:14.303Z,9.89
2023-03-16T06:46:56.438Z,9.89
2023-03-16T06:49:30.903Z,9.88
2023-03-16T06:52:10.329Z,9.85
2023-03-16T06:56:56.027Z,9.68
2023-03-16T06:59:29.192Z,9.94
2023-03-16T07:02:05.097Z,10.05
2023-03-16T07:04:37.284Z,10.12
2023-03-16T07:07:06.348Z,10.17
2023-03-16T07:09:41.546Z,10.21
2023-03-16T07:12:13.442Z,10.27
2023-03-16T07:14:57.574Z,10.33
2023-03-16T07:17:29.378Z,10.37
2023-03-16T07:20:04.968Z,10.39
2023-03-16T07:22:44.189Z,10.39
2023-03-16T07:25:39.505Z,10.39
2023-03-16T07:28:41.225Z,10.36
2023-03-16T07:31:12.425Z,10.34
2023-03-16T07:33:50.156Z,10.35
2023-03-16T07:36:54.084Z,10.38
2023-03-16T07:39:28.698Z,10.43
2023-03-16T07:42:06.381Z,10.51
2023-03-16T07:44:57.669Z,10.60
2023-03-16T07:47:38.378Z,10.65
2023-03-16T07:50:41.586Z,10.76
2023-03-16T07:53:19.155Z,10.78
2023-03-16T07:55:57.297Z,10.86
2023-03-16T07:58:28.504Z,10.92
2023-03-16T08:01:01.298Z,10.98
2023-03-16T08:03:34.396Z,11.02
2023-03-16T08:06:10.236Z,11.04
2023-03-16T08:08:46.577Z,11.14
2023-03-16T08:11:29.218Z,11.21
2023-03-16T08:14:00.389Z,11.25
2023-03-16T08:16:47.245Z,11.30
2023-03-16T08:19:22.853Z,11.32
2023-03-16T08:22:01.204Z,11.33
2023-03-16T08:26:49.942Z,11.41
2023-03-16T08:29:19.868Z,11.41
2023-03-16T08:31:50.729Z,11.32
2023-03-16T08:34:31.932Z,11.20
2023-03-16T08:37:04.393Z,11.17
2023-03-16T08:39:35.810Z,11.20
2023-03-16T08:42:09.194Z,11.22
2023-03-16T08:44:44.340Z,11.19
2023-03-16T08:47:16.804Z,11.09
2023-03-16T08:49:46.076Z,11.08
2023-03-16T08:52:18.908Z,11.08
2023-03-16T08:55:02.007Z,11.07
2023-03-16T08:57:34.491Z,11.10
2023-03-16T09:00:12.859Z,11.13
2023-03-16T09:02:46.831Z,11.18
2023-03-16T09:05:19.968Z,11.22
2023-03-16T09:07:49.146Z,11.33
2023-03-16T09:10:24.345Z,11.48
2023-03-16T09:12:57.693Z,11.57
2023-03-16T09:15:30.131Z,11.60
2023-03-16T09:18:04.326Z,11.64
2023-03-16T09:20:35.010Z,11.66
2023-03-16T09:23:08.904Z,11.64
2023-03-16T09:25:38.528Z,11.57
2023-03-16T09:28:13.035Z,11.45
2023-03-16T09:30:44.944Z,11.41
2023-03-16T09:33:14.835Z,11.43
2023-03-16T09:35:52.492Z,11.55
2023-03-16T09:38:23.202Z,11.67
2023-03-16T09:40:59.096Z,11.80
2023-03-16T09:43:37.082Z,11.85
2023-03-16T09:46:18.246Z,11.79
2023-03-16T09:48:51.081Z,11.71
2023-03-16T09:51:52.612Z,11.68
2023-03-16T09:54:29.219Z,11.77
2023-03-16T09:57:00.013Z,11.80
2023-03-16T09:59:34.167Z,11.81
2023-03-16T10:02:34.910Z,11.76
2023-03-16T10:05:16.101Z,11.73
2023-03-16T10:07:59.196Z,11.77
2023-03-16T10:10:50.118Z,11.80
2023-03-16T10:13:48.228Z,11.91
2023-03-16T10:16:52.833Z,11.92
2023-03-16T10:19:32.652Z,12.08
2023-03-16T10:22:08.616Z,12.16
2023-03-16T10:25:30.158Z,12.21
2023-03-16T10:28:06.682Z,12.15
2023-03-16T10:30:37.483Z,12.08
2023-03-16T10:33:24.693Z,12.08
2023-03-16T10:36:15.804Z,12.20
2023-03-16T10:38:55.461Z,12.21
2023-03-16T10:41:39.005Z,12.13
2023-03-16T10:44:30.137Z,12.06
2023-03-16T10:47:05.993Z,12.00
2023-03-16T10:49:44.833Z,11.93
2023-03-16T10:52:40.186Z,11.96
2023-03-16T10:55:32.867Z,12.01
2023-03-16T10:58:07.022Z,11.98
2023-03-16T11:00:37.636Z,11.91
2023-03-16T11:03:27.653Z,11.86
2023-03-16T11:06:02.490Z,11.82
2023-03-16T11:08:36.135Z,11.80
2023-03-16T11:11:10.103Z,11.73
2023-03-16T11:13:46.033Z,11.60
2023-03-16T11:16:37.289Z,11.57
2023-03-16T11:19:26.078Z,11.55
2023-03-16T11:22:20.484Z,11.56
2023-03-16T11:25:15.985Z,11.61
2023-03-16T11:28:13.119Z,11.69
2023-03-16T11:31:18.409Z,11.84
2023-03-16T11:33:49.378Z,11.94
2023-03-16T11:36:56.946Z,11.95
2023-03-16T11:39:40.908Z,11.91
2023-03-16T11:42:39.554Z,11.79
2023-03-16T11:45:37.944Z,11.71
2023-03-16T11:48:38.257Z,11.63
2023-03-16T11:51:28.805Z,11.55
2023-03-16T11:54:07.894Z,11.45
2023-03-16T11:56:38.813Z,11.44
2023-03-16T11:59:26.638Z,11.43
2023-03-16T12:02:07.522Z,11.40
2023-03-16T12:04:45.346Z,11.34
2023-03-16T12:07:29.302Z,11.27
2023-03-16T12:10:20.404Z,11.19
2023-03-16T12:13:18.293Z,11.12
2023-03-16T12:15:51.717Z,11.07
2023-03-16T12:18:38.744Z,11.08
2023-03-16T12:21:36.225Z,11.11
2023-03-16T12:24:11.224Z,11.18
2023-03-16T12:26:42.829Z,11.15
2023-03-16T12:29:37.008Z,11.09
2023-03-16T12:32:34.923Z,11.02
2023-03-16T12:35:22.573Z,10.98
2023-03-16T12:38:23.625Z,10.98
2023-03-16T12:41:29.781Z,10.95
2023-03-16T12:44:06.369Z,10.86
2023-03-16T12:47:14.909Z,10.86
2023-03-16T12:49:47.730Z,10.75
2023-03-16T12:52:17.305Z,10.66
2023-03-16T12:54:52.237Z,10.64
2023-03-16T12:57:38.614Z,10.65
2023-03-16T13:00:10.963Z,10.66
2023-03-16T13:02:48.892Z,10.64
2023-03-16T13:05:32.259Z,10.68
2023-03-16T13:08:10.834Z,10.72
2023-03-16T13:10:40.894Z,10.76
2023-03-16T13:13:15.285Z,10.77
2023-03-16T13:15:47.565Z,10.77
2023-03-16T13:18:22.481Z,10.78
2023-03-16T13:20:55.317Z,10.75
2023-03-16T13:23:30.377Z,10.74
2023-03-16T13:26:06.005Z,10.71
2023-03-16T13:28:37.829Z,10.71
2023-03-16T13:31:20.514Z,10.69
2023-03-16T13:33:49.604Z,10.64
2023-03-16T13:36:28.281Z,10.57
2023-03-16T13:39:19.175Z,10.52
2023-03-16T13:42:18.030Z,10.45
2023-03-16T13:44:56.814Z,10.35
2023-03-16T13:47:28.411Z,10.29
2023-03-16T13:50:00.222Z,10.23
2023-03-16T13:52:34.929Z,10.19
2023-03-16T13:55:20.091Z,10.19
2023-03-16T13:57:49.929Z,10.20
2023-03-16T14:00:25.800Z,10.22
2023-03-16T14:02:59.004Z,10.24
2023-03-16T14:05:36.461Z,10.27
2023-03-16T14:08:18.797Z,10.30
2023-03-16T14:10:48.576Z,10.24
2023-03-16T14:13:34.299Z,10.17
2023-03-16T14:16:18.016Z,10.12
2023-03-16T14:19:02.323Z,10.06
2023-03-16T14:21:34.426Z,10.09
2023-03-16T14:24:06.761Z,10.03
2023-03-16T14:26:47.352Z,9.97
2023-03-16T14:29:33.735Z,9.90
2023-03-16T14:32:02.283Z,9.78
2023-03-16T14:34:44.836Z,9.63
2023-03-16T14:37:16.530Z,9.59
2023-03-16T14:40:07.588Z,9.57
2023-03-16T14:42:38.589Z,9.57
2023-03-16T14:45:14.211Z,9.56
2023-03-16T14:47:50.275Z,9.53
2023-03-16T14:50:25.397Z,9.48
2023-03-16T14:52:56.007Z,9.40
2023-03-16T14:55:26.014Z,9.29
2023-03-16T14:57:59.822Z,9.20
2023-03-16T15:00:37.096Z,9.02
2023-03-16T15:03:13.839Z,8.88
2023-03-16T15:05:50.426Z,8.81
2023-03-16T15:08:32.396Z,8.71
2023-03-16T15:11:06.825Z,8.64
2023-03-16T15:13:42.320Z,8.57
2023-03-16T15:16:14.636Z,8.49
2023-03-16T15:18:45.033Z,8.45
2023-03-16T15:21:17.838Z,8.40
2023-03-16T15:23:47.438Z,8.32
2023-03-16T15:26:18.479Z,8.27
2023-03-16T15:28:47.148Z,8.26
2023-03-16T15:31:18.702Z,8.24
2023-03-16T15:33:47.201Z,8.22
2023-03-16T15:36:18.639Z,8.22
2023-03-16T15:38:49.031Z,8.17
2023-03-16T15:41:23.679Z,8.09
2023-03-16T15:44:01.132Z,8.03
2023-03-16T15:46:30.282Z,7.94
2023-03-16T15:49:02.698Z,7.90
2023-03-16T15:51:37.042Z,7.87
2023-03-16T15:54:09.691Z,7.86
2023-03-16T15:56:52.831Z,7.89
2023-03-16T15:59:38.030Z,7.86
2023-03-16T16:02:39.353Z,7.81
2023-03-16T16:05:14.730Z,7.79
2023-03-16T16:07:46.336Z,7.74
2023-03-16T16:10:16.258Z,7.69
2023-03-16T16:12:51.557Z,7.67
2023-03-16T16:15:23.206Z,7.64
2023-03-16T16:18:19.346Z,7.60
2023-03-16T16:20:48.494Z,7.63
2023-03-16T16:23:20.750Z,7.67
2023-03-16T16:25:51.541Z,7.67
2023-03-16T16:28:27.293Z,7.64
2023-03-16T16:30:58.191Z,7.58
2023-03-16T16:33:31.277Z,7.53
2023-03-16T16:36:04.216Z,7.52
2023-03-16T16:38:34.994Z,7.49
2023-03-16T16:41:09.558Z,7.41
2023-03-16T16:44:15.914Z,7.33
2023-03-16T16:46:51.572Z,7.32
2023-03-16T16:49:22.817Z,7.29
2023-03-16T16:51:55.687Z,7.26
2023-03-16T16:54:25.688Z,7.27
2023-03-16T16:56:55.293Z,7.24
2023-03-16T16:59:26.479Z,7.20
2023-03-16T17:01:54.922Z,7.21
2023-03-16T17:04:27.545Z,7.22
2023-03-16T17:07:01.808Z,7.22
2023-03-16T17:09:40.630Z,7.21
2023-03-16T17:12:17.658Z,7.23
2023-03-16T17:14:46.396Z,7.23
2023-03-16T17:17:19.105Z,7.21
2023-03-16T17:19:52.018Z,7.22
2023-03-16T17:22:23.180Z,7.22
2023-03-16T17:24:54.081Z,7.20
2023-03-16T17:27:33.105Z,7.16
2023-03-16T17:30:04.429Z,7.12
2023-03-16T17:32:40.684Z,7.09
2023-03-16T17:35:15.628Z,7.06
2023-03-16T17:37:48.060Z,7.03
2023-03-16T17:40:22.757Z,6.97
2023-03-16T17:42:53.869Z,6.87
2023-03-16T17:45:27.961Z,6.81
2023-03-16T17:47:56.442Z,6.81
2023-03-16T17:50:29.119Z,6.80
2023-03-16T17:52:58.204Z,6.79
2023-03-16T17:55:28.970Z,6.80
2023-03-16T17:58:00.721Z,6.80
2023-03-16T18:00:36.301Z,6.81
2023-03-16T18:03:15.084Z,6.75
2023-03-16T18:05:47.831Z,6.68
2023-03-16T18:08:26.850Z,6.64
2023-03-16T18:11:03.881Z,6.61
2023-03-16T18:13:38.758Z,6.59
2023-03-16T18:16:13.668Z,6.58
2023-03-16T18:18:44.306Z,6.60
2023-03-16T18:21:26.291Z,6.57
2023-03-16T18:23:56.533Z,6.52
2023-03-16T18:26:35.006Z,6.49
2023-03-16T18:29:05.845Z,6.42
2023-03-16T18:31:36.208Z,6.37
2023-03-16T18:34:11.895Z,6.38
2023-03-16T18:36:49.680Z,6.40
2023-03-16T18:39:21.437Z,6.37
2023-03-16T18:41:55.635Z,6.35
2023-03-16T18:44:27.205Z,6.35
2023-03-16T18:46:59.298Z,6.34
2023-03-16T18:49:34.365Z,6.30
2023-03-16T18:52:04.051Z,6.32
2023-03-16T18:54:35.613Z,6.33
2023-03-16T18:57:24.094Z,6.33
2023-03-16T18:59:55.606Z,6.31
2023-03-16T19:02:39.166Z,6.30
2023-03-16T19:05:14.477Z,6.30
2023-03-16T19:07:44.973Z,6.28
2023-03-16T19:10:33.901Z,6.24
2023-03-16T19:14:44.959Z,6.14
2023-03-16T19:17:24.804Z,6.21
2023-03-16T19:19:57.844Z,6.20
2023-03-16T19:22:33.736Z,6.17
2023-03-16T19:25:06.046Z,6.15
2023-03-16T19:27:46.331Z,6.13
2023-03-16T19:30:28.589Z,6.12
2023-03-16T19:39:46.736Z,6.18
2023-03-16T19:42:37.556Z,6.23
2023-03-16T19:45:06.702Z,6.31
2023-03-16T19:47:38.726Z,6.32
2023-03-16T19:50:22.513Z,6.30
2023-03-16T19:52:58.965Z,6.29
2023-03-16T19:55:32.282Z,6.28
2023-03-16T19:58:06.530Z,6.26
2023-03-16T20:00:37.959Z,6.17
2023-03-16T20:03:09.491Z,6.09
2023-03-16T20:05:42.511Z,6.01
2023-03-16T20:08:25.766Z,5.98
2023-03-16T20:11:44.751Z,6.06
2023-03-16T20:14:37.566Z,6.08
2023-03-16T20:17:11.408Z,6.06
2023-03-16T20:19:50.507Z,6.02
2023-03-16T20:22:24.329Z,5.96
2023-03-16T20:24:53.969Z,5.94
2023-03-16T20:27:32.842Z,5.94
2023-03-16T20:30:03.412Z,5.96
2023-03-16T20:32:42.857Z,5.97
2023-03-16T20:35:26.921Z,5.99
2023-03-16T20:37:56.487Z,5.99
2023-03-16T20:40:24.347Z,5.89
2023-03-16T20:42:56.900Z,5.79
2023-03-16T20:45:32.931Z,5.71
2023-03-16T20:48:05.929Z,5.63
2023-03-16T20:50:40.618Z,5.56
2023-03-16T20:53:10.709Z,5.48
2023-03-16T20:55:41.941Z,5.46
2023-03-16T20:58:24.958Z,5.44
2023-03-16T21:01:01.586Z,5.43
2023-03-16T21:03:34.999Z,5.43
2023-03-16T21:06:15.149Z,5.45
2023-03-16T21:08:48.644Z,5.48
2023-03-16T21:11:26.004Z,5.49
2023-03-16T21:14:04.603Z,5.50
2023-03-16T21:16:44.172Z,5.54
2023-03-16T21:19:25.882Z,5.54
2023-03-16T21:21:55.734Z,5.50
2023-03-16T21:24:36.706Z,5.49
2023-03-16T21:27:06.530Z,5.46
2023-03-16T21:29:40.452Z,5.44
2023-03-16T21:32:18.639Z,5.40
2023-03-16T21:34:50.747Z,5.35
2023-03-16T21:37:30.605Z,5.32
2023-03-16T21:40:25.911Z,5.27
2023-03-16T21:42:56.696Z,5.20
2023-03-16T21:45:32.880Z,5.18
2023-03-16T21:48:15.177Z,5.17
2023-03-16T21:50:48.040Z,5.13
2023-03-16T21:53:33.002Z,5.07
2023-03-16T21:56:05.706Z,5.03
2023-03-16T21:58:40.346Z,5.00
2023-03-16T22:01:32.842Z,4.98
2023-03-16T22:04:15.436Z,4.93
2023-03-16T22:07:12.849Z,4.92
2023-03-16T22:09:47.619Z,4.94
2023-03-16T22:12:15.446Z,4.92
2023-03-16T22:14:47.187Z,4.90
2023-03-16T22:17:40.078Z,4.86
2023-03-16T22:20:26.634Z,4.83
2023-03-16T22:23:28.168Z,4.83
2023-03-16T22:25:58.727Z,4.82
2023-03-16T22:28:36.680Z,4.83
2023-03-16T22:31:09.066Z,4.91
2023-03-16T22:33:40.970Z,4.89
2023-03-16T22:36:44.947Z,4.90
2023-03-16T22:39:20.684Z,4.92
2023-03-16T22:41:58.990Z,4.94
2023-03-16T22:44:29.455Z,4.89
2023-03-16T22:47:03.167Z,4.82
2023-03-16T22:49:34.463Z,4.77
2023-03-16T22:52:05.642Z,4.76
2023-03-16T22:54:37.175Z,4.77
2023-03-16T22:57:06.662Z,4.77
2023-03-16T22:59:38.704Z,4.78
2023-03-16T23:02:12.783Z,4.79
2023-03-16T23:04:41.839Z,4.80
2023-03-16T23:07:12.979Z,4.79
2023-03-16T23:09:42.640Z,4.80
2023-03-16T23:12:19.207Z,4.81
2023-03-16T23:14:50.860Z,4.83
2023-03-16T23:17:32.566Z,4.81
2023-03-16T23:20:29.818Z,4.79
2023-03-16T23:23:00.423Z,4.78
2023-03-16T23:25:30.343Z,4.76
2023-03-16T23:28:02.767Z,4.75
2023-03-16T23:30:31.293Z,4.70
2023-03-16T23:33:00.159Z,4.69
2023-03-16T23:35:30.527Z,4.70
2023-03-16T23:38:08.040Z,4.73
2023-03-16T23:40:41.942Z,4.71
2023-03-16T23:43:10.910Z,4.70
2023-03-16T23:45:46.042Z,4.73
2023-03-16T23:48:20.117Z,4.74
2023-03-16T23:50:48.806Z,4.77
2023-03-16T23:53:18.209Z,4.77
2023-03-16T23:55:57.471Z,4.76
2023-03-16T23:58:27.115Z,4.72
